createdAt,value
2023-01-04T00:01:02.085Z,69.40
2023-01-04T00:03:31.091Z,69.08
2023-01-04T00:05:58.883Z,69.28
2023-01-04T00:08:26.384Z,69.18
2023-01-04T00:10:53.804Z,69.38
2023-01-04T00:13:21.229Z,69.14
2023-01-04T00:15:48.844Z,69.30
2023-01-04T00:18:17.549Z,69.39
2023-01-04T00:20:44.978Z,69.42
2023-01-04T00:23:12.389Z,69.47
2023-01-04T00:25:39.792Z,69.45
2023-01-04T00:28:07.190Z,69.10
2023-01-04T00:30:34.777Z,69.28
2023-01-04T00:33:02.193Z,69.00
2023-01-04T00:35:45.437Z,70.26
2023-01-04T00:38:13.428Z,69.56
2023-01-04T00:40:40.840Z,70.08
2023-01-04T00:43:08.251Z,69.96
2023-01-04T00:45:35.719Z,69.74
2023-01-04T00:48:03.127Z,69.80
2023-01-04T00:50:31.828Z,69.96
2023-01-04T00:52:59.246Z,69.81
2023-01-04T00:55:26.661Z,69.91
2023-01-04T00:57:54.079Z,69.62
2023-01-04T01:00:21.490Z,70.05
2023-01-04T01:02:49.015Z,70.61
2023-01-04T01:05:16.603Z,69.70
2023-01-04T01:07:45.292Z,69.88
2023-01-04T01:10:12.712Z,69.98
2023-01-04T01:12:40.128Z,69.98
2023-01-04T01:15:08.308Z,70.28
2023-01-04T01:17:36.234Z,70.01
2023-01-04T01:20:04.339Z,70.00
2023-01-04T01:22:31.854Z,70.17
2023-01-04T01:25:00.536Z,70.03
2023-01-04T01:27:28.850Z,70.21
2023-01-04T01:29:56.244Z,70.07
2023-01-04T01:32:23.654Z,70.26
2023-01-04T01:34:51.079Z,70.31
2023-01-04T01:37:18.503Z,70.33
2023-01-04T01:39:45.921Z,70.51
2023-01-04T01:42:20.860Z,70.60
2023-01-04T01:45:10.968Z,70.70
2023-01-04T01:47:40.628Z,70.25
2023-01-04T01:50:16.437Z,70.41
2023-01-04T01:52:43.854Z,70.62
2023-01-04T01:55:11.633Z,70.65
2023-01-04T01:57:40.338Z,70.61
2023-01-04T02:00:09.768Z,70.87
2023-01-04T02:02:45.411Z,70.85
2023-01-04T02:05:13.026Z,70.97
2023-01-04T02:07:40.424Z,70.67
2023-01-04T02:10:08.558Z,71.03
2023-01-04T02:12:35.968Z,70.81
2023-01-04T02:15:05.116Z,71.00
2023-01-04T02:17:37.050Z,71.20
2023-01-04T02:20:12.012Z,71.07
2023-01-04T02:22:54.682Z,70.88
2023-01-04T02:25:38.315Z,71.19
2023-01-04T02:28:06.963Z,71.11
2023-01-04T02:30:57.375Z,70.85
2023-01-04T02:33:29.879Z,70.76
2023-01-04T02:36:00.885Z,70.96
2023-01-04T02:38:29.592Z,70.88
2023-01-04T02:41:00.563Z,70.77
2023-01-04T02:43:48.849Z,70.93
2023-01-04T02:46:18.991Z,70.87
2023-01-04T02:49:03.891Z,70.88
2023-01-04T02:51:32.289Z,70.79
2023-01-04T02:54:01.017Z,70.91
2023-01-04T02:56:36.236Z,70.77
2023-01-04T02:59:10.993Z,70.88
2023-01-04T03:02:01.521Z,70.85
2023-01-04T03:04:53.135Z,70.57
2023-01-04T03:07:24.961Z,70.93
2023-01-04T03:09:54.348Z,70.72
2023-01-04T03:12:32.255Z,70.63
2023-01-04T03:15:02.189Z,70.81
2023-01-04T03:17:34.359Z,70.84
2023-01-04T03:20:01.866Z,70.90
2023-01-04T03:22:51.043Z,70.77
2023-01-04T03:25:37.356Z,70.79
2023-01-04T03:28:22.710Z,70.88
2023-01-04T03:31:11.071Z,70.46
2023-01-04T03:33:57.660Z,70.87
2023-01-04T03:36:30.045Z,70.72
2023-01-04T03:39:16.880Z,70.63
2023-01-04T03:42:03.190Z,70.56
2023-01-04T03:44:49.662Z,70.52
2023-01-04T03:47:35.883Z,70.59
2023-01-04T03:50:07.266Z,70.71
2023-01-04T03:52:34.679Z,70.67
2023-01-04T03:55:02.128Z,70.58
2023-01-04T03:57:29.587Z,70.59
2023-01-04T03:59:58.968Z,70.62
2023-01-04T04:02:31.175Z,70.57
2023-01-04T04:05:15.903Z,70.32
2023-01-04T04:08:02.329Z,70.35
2023-01-04T04:10:29.778Z,70.38
2023-01-04T04:12:57.202Z,70.35
2023-01-04T04:15:24.631Z,70.57
2023-01-04T04:17:52.052Z,70.35
2023-01-04T04:20:19.480Z,70.48
2023-01-04T04:22:48.174Z,70.46
2023-01-04T04:25:15.619Z,70.27
2023-01-04T04:27:43.031Z,70.62
2023-01-04T04:30:11.006Z,70.57
2023-01-04T04:32:38.408Z,70.46
2023-01-04T04:35:06.419Z,70.28
2023-01-04T04:37:34.608Z,70.35
2023-01-04T04:40:03.764Z,70.28
2023-01-04T04:42:30.250Z,70.24
2023-01-04T04:44:57.658Z,70.40
2023-01-04T04:47:25.069Z,70.31
2023-01-04T04:49:52.555Z,70.47
2023-01-04T04:52:19.946Z,70.45
2023-01-04T04:54:47.356Z,70.40
2023-01-04T04:57:16.055Z,70.12
2023-01-04T04:59:43.476Z,70.38
2023-01-04T05:02:11.069Z,70.22
2023-01-04T05:04:38.673Z,70.11
2023-01-04T05:07:12.039Z,70.33
2023-01-04T05:09:39.938Z,70.22
2023-01-04T05:12:25.005Z,70.07
2023-01-04T05:14:53.698Z,70.32
2023-01-04T05:17:21.114Z,69.99
2023-01-04T05:19:48.523Z,70.17
2023-01-04T05:22:15.921Z,70.04
2023-01-04T05:24:43.322Z,70.29
2023-01-04T05:27:10.777Z,69.83
2023-01-04T05:29:55.974Z,69.81
2023-01-04T05:32:24.755Z,69.88
2023-01-04T05:34:52.187Z,69.76
2023-01-04T05:37:19.595Z,69.68
2023-01-04T05:39:47.009Z,69.74
2023-01-04T05:42:26.462Z,69.67
2023-01-04T05:44:54.107Z,69.69
2023-01-04T05:47:21.516Z,69.54
2023-01-04T05:49:50.243Z,69.32
2023-01-04T05:52:17.741Z,69.60
2023-01-04T05:54:45.199Z,69.40
2023-01-04T05:57:12.638Z,69.55
2023-01-04T05:59:42.168Z,69.51
2023-01-04T06:02:14.633Z,69.62
2023-01-04T06:04:42.098Z,69.49
2023-01-04T06:07:10.864Z,69.69
2023-01-04T06:09:38.279Z,69.52
2023-01-04T06:12:05.956Z,69.71
2023-01-04T06:14:33.416Z,69.37
2023-01-04T06:17:00.920Z,69.31
2023-01-04T06:19:28.408Z,69.41
2023-01-04T06:21:55.845Z,69.75
2023-01-04T06:24:24.554Z,69.62
2023-01-04T06:26:51.970Z,69.34
2023-01-04T06:29:19.401Z,69.43
2023-01-04T06:31:46.801Z,69.43
2023-01-04T06:34:14.672Z,69.51
2023-01-04T06:36:42.081Z,69.60
2023-01-04T06:39:09.647Z,69.48
2023-01-04T06:41:38.335Z,69.64
2023-01-04T06:44:05.974Z,69.18
2023-01-04T06:46:33.424Z,69.35
2023-01-04T06:49:00.868Z,69.55
2023-01-04T06:51:28.319Z,69.67
2023-01-04T06:53:55.761Z,69.70
2023-01-04T06:56:23.159Z,69.55
2023-01-04T06:58:51.878Z,69.28
2023-01-04T07:01:19.383Z,69.45
2023-01-04T07:03:46.865Z,69.29
2023-01-04T07:06:14.281Z,69.32
2023-01-04T07:08:41.709Z,69.26
2023-01-04T07:11:09.169Z,69.35
2023-01-04T07:13:36.597Z,69.08
2023-01-04T07:16:05.652Z,69.07
2023-01-04T07:18:33.141Z,69.19
2023-01-04T07:21:00.615Z,69.22
2023-01-04T07:23:28.028Z,69.32
2023-01-04T07:25:55.435Z,69.28
2023-01-04T07:28:36.899Z,69.34
2023-01-04T07:31:06.970Z,69.08
2023-01-04T07:33:34.484Z,69.30
2023-01-04T07:36:05.524Z,68.99
2023-01-04T07:38:33.813Z,68.98
2023-01-04T07:41:01.250Z,69.09
2023-01-04T07:43:28.916Z,69.03
2023-01-04T07:45:56.409Z,69.12
2023-01-04T07:48:25.209Z,68.92
2023-01-04T07:50:52.612Z,69.02
2023-01-04T07:53:20.040Z,68.99
2023-01-04T07:55:47.442Z,69.11
2023-01-04T07:58:14.875Z,68.88
2023-01-04T08:00:42.282Z,69.20
2023-01-04T08:03:09.787Z,69.04
2023-01-04T08:05:38.551Z,69.32
2023-01-04T08:08:06.258Z,69.16
2023-01-04T08:10:33.670Z,69.49
2023-01-04T08:13:01.132Z,69.98
2023-01-04T08:15:28.598Z,69.70
2023-01-04T08:17:56.751Z,69.76
2023-01-04T08:20:24.697Z,69.85
2023-01-04T08:22:53.450Z,69.50
2023-01-04T08:25:20.872Z,69.72
2023-01-04T08:27:48.631Z,69.43
2023-01-04T08:30:16.055Z,70.35
2023-01-04T08:32:43.578Z,70.47
2023-01-04T08:35:11.017Z,70.58
2023-01-04T08:37:38.477Z,70.27
2023-01-04T08:40:08.872Z,70.27
2023-01-04T08:42:36.266Z,69.82
2023-01-04T08:45:03.682Z,70.56
2023-01-04T08:47:31.313Z,70.34
2023-01-04T08:49:58.827Z,69.85
2023-01-04T08:52:26.258Z,70.12
2023-01-04T08:54:54.067Z,69.92
2023-01-04T08:57:22.806Z,70.24
2023-01-04T08:59:50.217Z,70.36
2023-01-04T09:02:21.673Z,70.46
2023-01-04T09:04:49.521Z,70.66
2023-01-04T09:07:17.235Z,70.36
2023-01-04T09:09:44.713Z,70.20
2023-01-04T09:12:12.751Z,69.96
2023-01-04T09:14:41.451Z,70.29
2023-01-04T09:17:08.893Z,70.06
2023-01-04T09:19:36.331Z,69.95
2023-01-04T09:22:03.817Z,70.02
2023-01-04T09:24:33.213Z,69.76
2023-01-04T09:27:00.664Z,70.06
2023-01-04T09:29:28.223Z,70.03
2023-01-04T09:31:57.024Z,69.75
2023-01-04T09:34:24.499Z,70.02
2023-01-04T09:36:52.231Z,70.02
2023-01-04T09:39:23.992Z,69.98
2023-01-04T09:41:56.312Z,70.10
2023-01-04T09:44:54.433Z,70.09
2023-01-04T09:47:19.314Z,70.01
2023-01-04T09:49:47.702Z,70.06
2023-01-04T09:52:16.550Z,70.10
2023-01-04T09:54:45.502Z,69.97
2023-01-04T09:57:18.145Z,69.95
2023-01-04T09:59:45.589Z,69.80
2023-01-04T10:02:13.753Z,69.98
2023-01-04T10:04:45.732Z,69.80
2023-01-04T10:07:18.131Z,69.73
2023-01-04T10:09:45.539Z,69.86
2023-01-04T10:12:21.987Z,69.95
2023-01-04T10:14:55.884Z,69.83
2023-01-04T10:18:02.734Z,69.99
2023-01-04T10:21:23.586Z,69.86
2023-01-04T10:23:41.638Z,69.94
2023-01-04T10:26:11.518Z,70.12
2023-01-04T10:28:46.274Z,69.80
2023-01-04T10:31:38.498Z,69.96
2023-01-04T10:34:05.206Z,69.99
2023-01-04T10:36:33.983Z,69.63
2023-01-04T10:39:02.883Z,69.90
2023-01-04T10:41:32.793Z,70.04
2023-01-04T10:44:11.991Z,69.93
2023-01-04T10:46:44.376Z,69.87
2023-01-04T10:49:13.167Z,69.63
2023-01-04T10:51:45.459Z,69.46
2023-01-04T10:54:17.289Z,69.40
2023-01-04T10:56:46.491Z,69.63
2023-01-04T10:59:16.306Z,69.40
2023-01-04T11:01:46.869Z,69.59
2023-01-04T11:04:16.223Z,69.84
2023-01-04T11:06:47.311Z,70.01
2023-01-04T11:09:21.122Z,70.09
2023-01-04T11:11:52.101Z,69.94
2023-01-04T11:14:19.551Z,69.70
2023-01-04T11:16:48.076Z,69.74
2023-01-04T11:19:15.735Z,69.71
2023-01-04T11:21:47.645Z,69.80
2023-01-04T11:24:31.400Z,69.38
2023-01-04T11:27:01.012Z,69.52
2023-01-04T11:29:31.635Z,69.51
2023-01-04T11:32:02.279Z,69.54
2023-01-04T11:34:49.782Z,69.22
2023-01-04T11:37:30.212Z,69.49
2023-01-04T11:40:21.209Z,69.15
2023-01-04T11:42:49.369Z,69.31
2023-01-04T11:45:22.174Z,69.40
2023-01-04T11:47:51.095Z,69.10
2023-01-04T11:50:34.989Z,69.38
2023-01-04T11:53:03.836Z,69.17
2023-01-04T11:55:31.441Z,69.10
2023-01-04T11:58:06.567Z,69.31
2023-01-04T12:00:34.123Z,69.55
2023-01-04T12:03:11.910Z,69.32
2023-01-04T12:05:39.419Z,69.44
2023-01-04T12:08:08.281Z,69.41
2023-01-04T12:10:35.725Z,69.36
2023-01-04T12:13:03.290Z,69.73
2023-01-04T12:15:35.646Z,69.63
2023-01-04T12:18:04.447Z,69.37
2023-01-04T12:20:31.888Z,69.25
2023-01-04T12:22:59.348Z,69.38
2023-01-04T12:25:34.732Z,69.66
2023-01-04T12:28:02.173Z,69.76
2023-01-04T12:30:41.770Z,69.62
2023-01-04T12:33:40.383Z,69.41
2023-01-04T12:36:08.739Z,69.43
2023-01-04T12:38:57.747Z,69.30
2023-01-04T12:42:17.753Z,68.96
2023-01-04T12:45:00.585Z,69.32
2023-01-04T12:47:57.444Z,69.01
2023-01-04T12:50:27.448Z,69.14
2023-01-04T12:53:19.616Z,69.25
2023-01-04T12:55:53.675Z,69.18
2023-01-04T12:59:23.773Z,69.18
2023-01-04T13:01:31.982Z,69.25
2023-01-04T13:04:04.991Z,69.39
2023-01-04T13:06:35.277Z,69.21
2023-01-04T13:09:02.802Z,69.24
2023-01-04T13:12:02.022Z,69.11
2023-01-04T13:14:31.792Z,69.09
2023-01-04T13:17:09.214Z,69.29
2023-01-04T13:19:38.901Z,69.40
2023-01-04T13:22:11.393Z,69.36
2023-01-04T13:24:38.981Z,69.02
2023-01-04T13:27:07.062Z,69.28
2023-01-04T13:29:35.000Z,69.36
2023-01-04T13:32:02.954Z,69.34
2023-01-04T13:34:32.821Z,69.17
2023-01-04T13:37:05.816Z,69.04
2023-01-04T13:39:33.224Z,69.33
2023-01-04T13:42:00.645Z,68.98
2023-01-04T13:45:18.399Z,68.78
2023-01-04T13:47:38.806Z,68.83
2023-01-04T13:50:08.526Z,68.85
2023-01-04T13:52:53.078Z,68.67
2023-01-04T13:55:24.701Z,68.67
2023-01-04T13:57:56.180Z,68.77
2023-01-04T14:00:23.685Z,68.82
2023-01-04T14:03:04.209Z,68.82
2023-01-04T14:05:33.052Z,68.77
2023-01-04T14:08:00.884Z,68.76
2023-01-04T14:10:28.429Z,68.86
2023-01-04T14:12:55.945Z,68.74
2023-01-04T14:15:24.415Z,68.83
2023-01-04T14:17:52.404Z,68.92
2023-01-04T14:20:34.387Z,68.74
2023-01-04T14:23:01.886Z,68.82
2023-01-04T14:25:56.113Z,68.76
2023-01-04T14:28:41.631Z,68.55
2023-01-04T14:31:19.254Z,68.56
2023-01-04T14:33:47.353Z,68.64
2023-01-04T14:36:19.195Z,68.60
2023-01-04T14:38:48.314Z,68.88
2023-01-04T14:41:20.302Z,68.74
2023-01-04T14:43:48.789Z,68.85
2023-01-04T14:46:16.304Z,69.06
2023-01-04T14:48:43.954Z,68.56
2023-01-04T14:51:12.028Z,68.78
2023-01-04T14:53:40.743Z,68.78
2023-01-04T14:56:08.964Z,68.64
2023-01-04T14:58:36.641Z,68.30
2023-01-04T15:01:04.066Z,68.19
2023-01-04T15:03:31.689Z,68.18
2023-01-04T15:05:59.506Z,68.14
2023-01-04T15:08:26.953Z,68.08
2023-01-04T15:11:00.007Z,67.91
2023-01-04T15:13:36.746Z,68.16
2023-01-04T15:16:07.289Z,68.24
2023-01-04T15:18:34.801Z,68.17
2023-01-04T15:21:03.183Z,67.92
2023-01-04T15:23:30.607Z,67.93
2023-01-04T15:26:01.670Z,68.11
2023-01-04T15:28:29.121Z,67.82
2023-01-04T15:30:56.592Z,67.85
2023-01-04T15:33:27.522Z,67.99
2023-01-04T15:35:59.298Z,67.91
2023-01-04T15:38:26.780Z,67.67
2023-01-04T15:41:01.875Z,67.93
2023-01-04T15:43:34.135Z,67.99
2023-01-04T15:46:04.773Z,67.79
2023-01-04T15:48:32.257Z,67.93
2023-01-04T15:51:02.997Z,67.58
2023-01-04T15:53:30.489Z,67.60
2023-01-04T15:56:06.952Z,67.87
2023-01-04T15:58:34.431Z,67.77
2023-01-04T16:01:06.294Z,67.87
2023-01-04T16:03:35.150Z,67.81
2023-01-04T16:06:05.768Z,67.65
2023-01-04T16:08:33.187Z,67.60
2023-01-04T16:11:00.598Z,67.67
2023-01-04T16:13:29.329Z,67.74
2023-01-04T16:15:57.846Z,67.59
2023-01-04T16:18:28.936Z,67.46
2023-01-04T16:20:59.731Z,67.67
2023-01-04T16:23:27.223Z,67.28
2023-01-04T16:26:03.960Z,67.32
2023-01-04T16:28:32.636Z,67.56
2023-01-04T16:31:00.490Z,67.73
2023-01-04T16:33:28.025Z,67.82
2023-01-04T16:36:02.635Z,67.94
2023-01-04T16:38:30.059Z,68.15
2023-01-04T16:40:58.670Z,68.08
2023-01-04T16:43:26.143Z,68.08
2023-01-04T16:46:14.375Z,68.20
2023-01-04T16:48:41.832Z,68.16
2023-01-04T16:51:09.397Z,68.07
2023-01-04T16:53:36.788Z,67.60
2023-01-04T16:56:04.475Z,67.55
2023-01-04T16:58:31.890Z,67.72
2023-01-04T17:01:08.497Z,67.80
2023-01-04T17:03:36.214Z,67.92
2023-01-04T17:06:06.755Z,67.95
2023-01-04T17:08:34.160Z,68.03
2023-01-04T17:11:42.328Z,68.19
2023-01-04T17:13:53.158Z,68.31
2023-01-04T17:16:22.148Z,68.32
2023-01-04T17:18:49.879Z,68.17
2023-01-04T17:21:33.886Z,68.07
2023-01-04T17:24:02.303Z,68.19
2023-01-04T17:26:30.767Z,67.86
2023-01-04T17:28:58.737Z,67.68
2023-01-04T17:31:28.746Z,68.00
2023-01-04T17:33:56.180Z,67.61
2023-01-04T17:36:23.605Z,67.91
2023-01-04T17:38:51.118Z,67.61
2023-01-04T17:41:19.409Z,67.49
2023-01-04T17:43:47.831Z,67.73
2023-01-04T17:46:22.410Z,67.78
2023-01-04T17:49:17.794Z,67.67
2023-01-04T17:51:39.806Z,67.66
2023-01-04T17:54:08.207Z,67.76
2023-01-04T17:56:37.077Z,67.80
2023-01-04T17:59:06.602Z,67.60
2023-01-04T18:01:34.190Z,68.03
2023-01-04T18:04:03.184Z,67.90
2023-01-04T18:06:31.768Z,67.95
2023-01-04T18:08:59.465Z,68.02
2023-01-04T18:11:26.923Z,68.02
2023-01-04T18:13:54.354Z,68.08
2023-01-04T18:16:25.103Z,68.10
2023-01-04T18:18:52.995Z,68.00
2023-01-04T18:21:30.068Z,68.14
2023-01-04T18:29:33.314Z,68.19
2023-01-04T18:32:00.802Z,68.25
2023-01-04T18:34:28.303Z,68.12
2023-01-04T18:36:56.998Z,68.22
2023-01-04T18:39:24.559Z,68.26
2023-01-04T18:41:51.977Z,68.39
2023-01-04T18:44:38.735Z,68.92
2023-01-04T18:47:08.821Z,69.32
2023-01-04T18:49:36.225Z,69.07
2023-01-04T18:52:05.277Z,69.36
2023-01-04T18:54:32.679Z,69.46
2023-01-04T18:57:01.262Z,69.94
2023-01-04T18:59:28.979Z,70.18
2023-01-04T19:02:00.726Z,70.12
2023-01-04T19:04:28.895Z,70.28
2023-01-04T19:06:56.304Z,72.70
2023-01-04T19:09:25.020Z,72.94
2023-01-04T19:11:52.444Z,72.89
2023-01-04T19:14:19.839Z,72.53
2023-01-04T19:16:47.307Z,72.72
2023-01-04T19:19:14.792Z,72.80
2023-01-04T19:21:42.205Z,72.73
2023-01-04T19:24:09.846Z,72.38
2023-01-04T19:26:38.568Z,72.71
2023-01-04T19:29:07.315Z,72.49
2023-01-04T19:31:35.715Z,72.52
2023-01-04T19:34:03.308Z,72.44
2023-01-04T19:36:30.719Z,72.55
2023-01-04T19:38:58.321Z,72.45
2023-01-04T19:41:33.473Z,72.45
2023-01-04T19:44:03.446Z,72.36
2023-01-04T19:46:31.638Z,72.91
2023-01-04T19:48:59.746Z,72.93
2023-01-04T19:51:28.336Z,73.24
2023-01-04T19:53:55.802Z,73.15
2023-01-04T19:56:23.231Z,73.27
2023-01-04T19:58:50.662Z,73.54
2023-01-04T20:01:20.595Z,73.56
2023-01-04T20:03:48.269Z,73.80
2023-01-04T20:06:15.792Z,73.70
2023-01-04T20:08:43.497Z,73.57
2023-01-04T20:11:11.074Z,73.35
2023-01-04T20:13:38.772Z,73.46
2023-01-04T20:16:06.751Z,73.35
2023-01-04T20:18:35.635Z,73.39
2023-01-04T20:21:03.261Z,73.51
2023-01-04T20:23:30.670Z,73.43
2023-01-04T20:25:58.070Z,73.45
2023-01-04T20:28:25.569Z,73.39
2023-01-04T20:31:01.301Z,73.47
2023-01-04T20:33:28.797Z,73.90
2023-01-04T20:35:57.480Z,73.96
2023-01-04T20:38:24.898Z,73.72
2023-01-04T20:40:52.294Z,73.99
2023-01-04T20:43:34.476Z,74.08
2023-01-04T20:46:02.217Z,74.09
2023-01-04T20:48:29.672Z,74.62
2023-01-04T20:50:58.356Z,74.61
2023-01-04T20:53:25.753Z,74.19
2023-01-04T20:55:53.157Z,74.35
2023-01-04T20:58:20.550Z,74.46
2023-01-04T21:00:47.979Z,74.65
2023-01-04T21:03:15.705Z,74.53
2023-01-04T21:05:44.251Z,74.43
2023-01-04T21:08:13.274Z,74.22
2023-01-04T21:10:41.618Z,74.54
2023-01-04T21:13:09.029Z,74.40
2023-01-04T21:15:36.793Z,74.87
2023-01-04T21:18:04.365Z,74.51
2023-01-04T21:20:31.778Z,74.71
2023-01-04T21:22:59.221Z,74.67
2023-01-04T21:25:27.973Z,74.82
2023-01-04T21:27:55.426Z,74.57
2023-01-04T21:30:22.821Z,74.81
2023-01-04T21:32:50.204Z,74.66
2023-01-04T21:35:17.666Z,74.80
2023-01-04T21:37:45.091Z,74.90
2023-01-04T21:40:13.125Z,79.79
2023-01-04T21:42:41.842Z,80.25
2023-01-04T21:45:09.790Z,79.73
2023-01-04T21:47:37.760Z,79.83
2023-01-04T21:50:05.454Z,80.11
2023-01-04T21:52:32.890Z,79.88
2023-01-04T21:55:00.342Z,79.42
2023-01-04T21:57:27.753Z,79.94
2023-01-04T21:59:56.465Z,79.42
2023-01-04T22:02:24.008Z,79.45
2023-01-04T22:04:51.542Z,79.24
2023-01-04T22:07:18.985Z,79.14
2023-01-04T22:09:46.479Z,79.08
2023-01-04T22:12:13.894Z,79.32
2023-01-04T22:14:41.332Z,79.04
2023-01-04T22:17:10.063Z,78.74
2023-01-04T22:19:37.473Z,78.82
2023-01-04T22:22:04.887Z,78.67
2023-01-04T22:24:37.526Z,78.66
2023-01-04T22:27:05.571Z,78.62
2023-01-04T22:29:33.020Z,78.16
2023-01-04T22:32:00.534Z,78.18
2023-01-04T22:34:29.454Z,77.79
2023-01-04T22:36:56.864Z,77.60
2023-01-04T22:39:24.277Z,77.56
2023-01-04T22:41:51.700Z,77.38
2023-01-04T22:44:19.121Z,77.37
2023-01-04T22:46:46.558Z,77.56
2023-01-04T22:49:14.015Z,77.21
2023-01-04T22:51:42.707Z,76.99
2023-01-04T22:54:10.166Z,77.14
2023-01-04T22:56:37.604Z,77.19
2023-01-04T22:59:05.023Z,76.86
2023-01-04T23:01:33.079Z,77.01
2023-01-04T23:04:01.214Z,77.16
2023-01-04T23:06:29.178Z,77.06
2023-01-04T23:08:58.841Z,76.88
2023-01-04T23:11:26.519Z,77.39
2023-01-04T23:13:53.956Z,78.23
2023-01-04T23:16:26.202Z,78.00
2023-01-04T23:18:57.229Z,77.87
2023-01-04T23:21:24.643Z,77.95
2023-01-04T23:23:52.161Z,77.86
2023-01-04T23:26:22.826Z,77.57
2023-01-04T23:28:50.547Z,77.89
2023-01-04T23:31:19.849Z,77.85
2023-01-04T23:33:47.634Z,77.91
2023-01-04T23:36:16.575Z,77.84
2023-01-04T23:38:44.173Z,77.89
2023-01-04T23:41:11.916Z,77.84
2023-01-04T23:43:40.661Z,77.83
2023-01-04T23:46:08.590Z,77.62
2023-01-04T23:48:36.052Z,77.68
2023-01-04T23:51:03.507Z,77.68
2023-01-04T23:53:30.984Z,78.06
2023-01-04T23:55:59.230Z,77.84
2023-01-04T23:58:27.381Z,77.65
